createdAt,value
2023-04-19T00:01:45.125Z,5.72
2023-04-19T00:05:48.972Z,5.50
2023-04-19T00:09:52.034Z,5.90
2023-04-19T00:13:55.124Z,6.10
2023-04-19T00:17:59.885Z,6.10
2023-04-19T00:22:03.074Z,6.53
2023-04-19T00:26:06.190Z,6.80
2023-04-19T00:30:10.021Z,6.20
2023-04-19T00:34:14.834Z,6.70
2023-04-19T00:38:18.356Z,6.72
2023-04-19T00:42:21.597Z,6.78
2023-04-19T00:46:25.656Z,6.95
2023-04-19T00:50:30.630Z,7.07
2023-04-19T00:54:34.452Z,6.85
2023-04-19T00:58:39.811Z,6.97
2023-04-19T01:02:43.474Z,7.38
2023-04-19T01:06:49.241Z,6.95
2023-04-19T01:10:52.337Z,7.30
2023-04-19T01:14:55.364Z,7.10
2023-04-19T01:18:58.429Z,7.70
2023-04-19T01:23:03.902Z,7.63
2023-04-19T01:27:07.012Z,6.72
2023-04-19T01:31:10.161Z,7.20
2023-04-19T01:35:13.406Z,7.85
2023-04-19T01:39:17.946Z,7.55
2023-04-19T01:43:20.983Z,7.20
2023-04-19T01:47:25.128Z,7.93
2023-04-19T01:51:28.205Z,8.30
2023-04-19T01:55:33.114Z,7.82
2023-04-19T01:59:36.282Z,7.65
2023-04-19T02:03:39.435Z,8.13
2023-04-19T02:07:42.708Z,8.10
2023-04-19T02:11:47.100Z,8.02
2023-04-19T02:15:50.549Z,8.15
2023-04-19T02:19:54.141Z,8.13
2023-04-19T02:23:57.187Z,8.38
2023-04-19T02:28:01.604Z,8.00
2023-04-19T02:32:06.203Z,8.25
2023-04-19T02:36:10.135Z,8.90
2023-04-19T02:40:13.351Z,8.95
2023-04-19T02:44:18.348Z,8.55
2023-04-19T02:48:21.592Z,8.43
2023-04-19T02:52:24.891Z,9.15
2023-04-19T02:56:27.989Z,8.15
2023-04-19T03:00:32.886Z,9.05
2023-04-19T03:04:43.617Z,9.73
2023-04-19T03:08:47.072Z,8.68
2023-04-19T03:12:50.905Z,9.13
2023-04-19T03:16:55.833Z,9.05
2023-04-19T03:20:59.154Z,9.07
2023-04-19T03:25:07.345Z,9.38
2023-04-19T03:29:12.150Z,9.15
2023-04-19T03:33:20.477Z,9.32
2023-04-19T03:37:24.178Z,9.85
2023-04-19T03:41:28.792Z,9.93
2023-04-19T03:45:49.819Z,9.23
2023-04-19T03:49:55.067Z,10.07
2023-04-19T03:53:58.436Z,11.07
2023-04-19T03:58:01.901Z,10.70
2023-04-19T04:02:16.907Z,10.63
2023-04-19T04:06:21.573Z,10.63
2023-04-19T04:10:25.167Z,11.68
2023-04-19T04:14:28.564Z,11.15
2023-04-19T04:18:32.195Z,11.23
2023-04-19T04:22:44.159Z,11.13
2023-04-19T04:26:51.561Z,11.25
2023-04-19T04:30:59.263Z,11.13
2023-04-19T04:35:07.042Z,11.50
2023-04-19T04:39:20.077Z,12.00
2023-04-19T04:43:24.457Z,11.68
2023-04-19T04:47:32.409Z,11.20
2023-04-19T04:51:39.034Z,12.57
2023-04-19T04:55:43.520Z,12.65
2023-04-19T04:59:49.139Z,11.90
2023-04-19T05:03:55.148Z,12.10
2023-04-19T05:07:58.632Z,12.23
2023-04-19T05:12:03.491Z,12.18
2023-04-19T05:16:07.609Z,11.57
2023-04-19T05:20:12.181Z,12.27
2023-04-19T05:24:15.634Z,12.75
2023-04-19T05:28:21.287Z,11.80
2023-04-19T05:32:47.431Z,11.38
2023-04-19T05:36:51.797Z,11.77
2023-04-19T05:40:55.612Z,11.63
2023-04-19T05:45:00.017Z,12.05
2023-04-19T05:49:04.343Z,11.20
2023-04-19T05:53:26.433Z,11.45
2023-04-19T05:57:30.146Z,11.38
2023-04-19T06:01:35.283Z,11.65
2023-04-19T06:05:40.547Z,11.75
2023-04-19T06:09:43.666Z,11.45
2023-04-19T06:13:47.431Z,11.15
2023-04-19T06:17:51.961Z,12.55
2023-04-19T06:21:55.400Z,11.70
2023-04-19T06:25:58.443Z,11.82
2023-04-19T06:30:01.714Z,12.15
2023-04-19T06:34:06.166Z,12.45
2023-04-19T06:38:09.206Z,11.82
2023-04-19T06:42:12.535Z,11.95
2023-04-19T06:46:15.915Z,12.52
2023-04-19T06:50:20.824Z,12.23
2023-04-19T06:54:23.865Z,11.85
2023-04-19T06:58:26.958Z,12.10
2023-04-19T07:02:30.103Z,11.93
2023-04-19T07:06:34.666Z,12.25
2023-04-19T07:10:37.755Z,12.10
2023-04-19T07:14:40.801Z,11.60
2023-04-19T07:18:44.495Z,11.70
2023-04-19T07:22:49.110Z,10.32
2023-04-19T07:26:52.084Z,9.30
2023-04-19T07:30:55.300Z,9.48
2023-04-19T07:34:58.446Z,10.02
2023-04-19T07:39:02.847Z,9.15
2023-04-19T07:43:06.750Z,9.50
2023-04-19T07:47:09.811Z,9.55
2023-04-19T07:51:13.585Z,9.30
2023-04-19T07:55:17.968Z,9.70
2023-04-19T07:59:21.041Z,9.00
2023-04-19T08:03:24.248Z,8.95
2023-04-19T08:07:27.441Z,10.00
2023-04-19T08:11:32.101Z,9.50
2023-04-19T08:19:41.682Z,9.10
2023-04-19T08:23:48.204Z,9.73
2023-04-19T08:27:52.991Z,9.40
2023-04-19T08:31:56.333Z,9.18
2023-04-19T08:35:59.406Z,9.20
2023-04-19T08:40:03.870Z,9.35
2023-04-19T08:44:08.755Z,9.40
2023-04-19T08:48:12.670Z,11.07
2023-04-19T08:52:16.693Z,12.65
2023-04-19T08:56:34.490Z,9.35
2023-04-19T09:00:41.368Z,9.05
2023-04-19T09:04:44.724Z,10.20
2023-04-19T09:08:47.987Z,14.10
2023-04-19T09:13:06.122Z,9.00
2023-04-19T09:17:18.373Z,7.22
2023-04-19T09:21:29.451Z,6.07
2023-04-19T09:25:47.163Z,5.78
2023-04-19T09:29:56.336Z,5.82
2023-04-19T09:34:14.219Z,5.68
2023-04-19T09:38:17.824Z,4.20
2023-04-19T09:42:42.384Z,2.80
2023-04-19T09:46:45.641Z,2.72
2023-04-19T09:51:02.377Z,3.10
2023-04-19T09:55:22.142Z,3.20
2023-04-19T09:59:28.852Z,3.78
2023-04-19T10:03:32.778Z,3.40
2023-04-19T10:07:38.328Z,3.65
2023-04-19T10:11:42.971Z,3.65
2023-04-19T10:15:52.685Z,3.90
2023-04-19T10:20:07.748Z,3.78
2023-04-19T10:24:14.763Z,3.85
2023-04-19T10:28:18.052Z,4.00
2023-04-19T10:32:21.174Z,4.03
2023-04-19T10:36:28.288Z,3.60
2023-04-19T10:40:59.110Z,4.55
2023-04-19T10:45:33.268Z,4.18
2023-04-19T10:49:46.143Z,4.20
2023-04-19T10:53:59.631Z,4.13
2023-04-19T10:58:05.716Z,4.50
2023-04-19T11:02:29.498Z,4.03
2023-04-19T11:06:33.200Z,4.00
2023-04-19T11:10:36.624Z,3.55
2023-04-19T11:14:43.051Z,3.50
2023-04-19T11:18:46.120Z,3.45
2023-04-19T11:22:49.289Z,3.45
2023-04-19T11:26:54.819Z,3.20
2023-04-19T11:31:00.197Z,3.47
2023-04-19T11:35:08.441Z,3.63
2023-04-19T11:39:12.130Z,3.78
2023-04-19T11:43:15.327Z,3.75
2023-04-19T11:47:20.888Z,3.53
2023-04-19T11:51:23.955Z,3.40
2023-04-19T11:55:27.398Z,3.42
2023-04-19T11:59:31.096Z,3.85
2023-04-19T12:03:36.896Z,3.90
2023-04-19T12:08:06.331Z,2.97
2023-04-19T12:12:09.406Z,2.78
2023-04-19T12:16:13.296Z,2.78
2023-04-19T12:20:31.643Z,3.08
2023-04-19T12:24:34.761Z,2.80
2023-04-19T12:28:37.835Z,2.60
2023-04-19T12:32:41.043Z,2.78
2023-04-19T12:36:45.488Z,2.95
2023-04-19T12:40:48.836Z,3.35
2023-04-19T12:44:51.901Z,2.90
2023-04-19T12:48:55.090Z,3.67
2023-04-19T12:52:59.589Z,3.72
2023-04-19T12:57:03.548Z,3.20
2023-04-19T13:01:07.324Z,2.90
2023-04-19T13:05:12.920Z,3.85
2023-04-19T13:09:17.825Z,3.22
2023-04-19T13:13:20.958Z,3.00
2023-04-19T13:17:23.991Z,4.28
2023-04-19T13:21:27.929Z,3.85
2023-04-19T13:25:32.474Z,3.92
2023-04-19T13:29:35.531Z,3.92
2023-04-19T13:33:38.598Z,4.03
2023-04-19T13:37:44.272Z,3.97
2023-04-19T13:41:48.958Z,3.35
2023-04-19T13:45:52.099Z,2.85
2023-04-19T13:49:55.110Z,3.05
2023-04-19T13:53:58.120Z,3.35
2023-04-19T13:58:02.522Z,3.80
2023-04-19T14:02:05.780Z,3.45
2023-04-19T14:06:09.016Z,3.67
2023-04-19T14:10:12.438Z,3.40
2023-04-19T14:14:17.454Z,3.85
2023-04-19T14:18:20.734Z,3.83
2023-04-19T14:22:23.753Z,4.78
2023-04-19T14:26:27.728Z,4.10
2023-04-19T14:30:32.283Z,3.05
2023-04-19T14:34:35.304Z,3.10
2023-04-19T14:38:38.266Z,2.70
2023-04-19T14:42:41.668Z,2.88
2023-04-19T14:46:46.564Z,3.05
2023-04-19T14:50:49.872Z,2.85
2023-04-19T14:54:52.851Z,3.10
2023-04-19T14:58:55.989Z,3.10
2023-04-19T15:03:01.296Z,3.15
2023-04-19T15:07:04.862Z,3.00
2023-04-19T15:11:07.889Z,2.70
2023-04-19T15:15:11.697Z,2.60
2023-04-19T15:19:16.862Z,2.90
2023-04-19T15:23:22.204Z,2.58
2023-04-19T15:27:25.295Z,3.03
2023-04-19T15:31:28.304Z,2.97
2023-04-19T15:35:33.398Z,2.90
2023-04-19T15:39:36.415Z,2.78
2023-04-19T15:43:39.774Z,2.45
2023-04-19T15:47:42.913Z,3.28
2023-04-19T15:51:47.368Z,3.35
2023-04-19T15:55:50.514Z,3.17
2023-04-19T15:59:53.572Z,3.13
2023-04-19T16:03:56.749Z,3.40
2023-04-19T16:08:04.961Z,2.70
2023-04-19T16:12:08.302Z,2.90
2023-04-19T16:16:11.350Z,2.40
2023-04-19T16:20:14.494Z,2.53
2023-04-19T16:24:19.030Z,2.58
2023-04-19T16:28:22.167Z,13.98
2023-04-19T16:32:25.281Z,4.88
2023-04-19T16:36:28.537Z,2.67
2023-04-19T16:40:33.204Z,2.42
2023-04-19T16:44:36.690Z,2.60
2023-04-19T16:48:39.812Z,2.65
2023-04-19T16:52:42.863Z,2.70
2023-04-19T16:56:47.361Z,2.72
2023-04-19T17:00:50.459Z,3.00
2023-04-19T17:04:53.834Z,2.53
2023-04-19T17:08:57.046Z,2.42
2023-04-19T17:13:01.562Z,2.60
2023-04-19T17:17:04.704Z,2.63
2023-04-19T17:21:07.729Z,2.78
2023-04-19T17:25:11.074Z,3.05
2023-04-19T17:29:15.777Z,2.95
2023-04-19T17:33:18.893Z,3.30
2023-04-19T17:37:22.128Z,12.32
2023-04-19T17:41:25.234Z,3.70
2023-04-19T17:45:29.924Z,3.55
2023-04-19T17:49:32.995Z,2.78
2023-04-19T17:53:36.135Z,3.42
2023-04-19T17:57:39.174Z,2.88
2023-04-19T18:01:43.602Z,3.00
2023-04-19T18:05:46.694Z,3.15
2023-04-19T18:09:49.699Z,3.50
2023-04-19T18:13:52.870Z,3.33
2023-04-19T18:17:57.339Z,3.08
2023-04-19T18:22:01.417Z,3.05
2023-04-19T18:26:05.103Z,3.65
2023-04-19T18:30:09.181Z,16.20
2023-04-19T18:34:13.894Z,5.13
2023-04-19T18:38:16.974Z,3.70
2023-04-19T18:42:20.173Z,3.20
2023-04-19T18:46:24.247Z,3.28
2023-04-19T18:50:28.814Z,3.20
2023-04-19T18:54:31.816Z,2.70
2023-04-19T18:58:34.835Z,3.30
2023-04-19T19:02:40.450Z,4.80
2023-04-19T19:06:45.572Z,3.13
2023-04-19T19:11:13.791Z,3.15
2023-04-19T19:15:11.962Z,3.05
2023-04-19T19:19:15.303Z,3.30
2023-04-19T19:23:20.491Z,2.83
2023-04-19T19:27:29.314Z,3.10
2023-04-19T19:31:32.326Z,3.28
2023-04-19T19:35:35.982Z,3.30
2023-04-19T19:39:40.605Z,3.38
2023-04-19T19:43:45.201Z,3.67
2023-04-19T19:47:49.960Z,3.33
2023-04-19T19:51:58.483Z,3.42
2023-04-19T19:56:04.292Z,3.67
2023-04-19T20:04:17.260Z,3.22
2023-04-19T20:08:20.413Z,3.15
2023-04-19T20:12:24.862Z,3.50
2023-04-19T20:16:29.090Z,2.97
2023-04-19T20:20:32.250Z,3.13
2023-04-19T20:24:35.260Z,3.45
2023-04-19T20:28:39.635Z,3.05
2023-04-19T20:32:43.307Z,3.08
2023-04-19T20:36:47.271Z,2.90
2023-04-19T20:40:50.702Z,3.03
2023-04-19T20:44:55.106Z,2.97
2023-04-19T20:48:58.217Z,3.08
2023-04-19T20:53:01.383Z,3.25
2023-04-19T20:57:04.861Z,3.80
2023-04-19T21:01:10.084Z,3.47
2023-04-19T21:05:13.212Z,3.60
2023-04-19T21:09:16.495Z,3.90
2023-04-19T21:13:19.721Z,4.00
2023-04-19T21:17:24.401Z,4.15
2023-04-19T21:21:28.065Z,4.60
2023-04-19T21:25:31.192Z,4.10
2023-04-19T21:29:34.614Z,4.50
2023-04-19T21:33:39.080Z,4.18
2023-04-19T21:37:42.129Z,4.10
2023-04-19T21:41:45.186Z,4.05
2023-04-19T21:45:48.222Z,4.03
2023-04-19T21:49:53.348Z,4.30
2023-04-19T21:53:56.461Z,4.20
2023-04-19T21:57:59.763Z,3.50
2023-04-19T22:02:03.159Z,4.45
2023-04-19T22:06:08.546Z,4.38
2023-04-19T22:10:13.766Z,4.18
2023-04-19T22:14:17.646Z,4.35
2023-04-19T22:18:20.893Z,3.90
2023-04-19T22:22:25.510Z,4.25
2023-04-19T22:26:29.352Z,4.10
2023-04-19T22:30:32.432Z,4.47
2023-04-19T22:34:36.531Z,4.30
2023-04-19T22:38:40.962Z,4.85
2023-04-19T22:42:44.069Z,4.47
2023-04-19T22:46:47.340Z,4.43
2023-04-19T22:50:52.528Z,4.10
2023-04-19T22:54:57.025Z,4.22
2023-04-19T22:59:00.095Z,4.88
2023-04-19T23:03:03.651Z,3.92
2023-04-19T23:07:07.075Z,3.53
2023-04-19T23:11:11.492Z,4.15
2023-04-19T23:15:14.837Z,4.03
2023-04-19T23:19:18.201Z,4.43
2023-04-19T23:23:21.504Z,4.45
2023-04-19T23:27:26.598Z,4.88
2023-04-19T23:31:29.714Z,4.85
2023-04-19T23:35:32.816Z,4.35
2023-04-19T23:39:35.926Z,4.38
2023-04-19T23:43:40.499Z,4.60
2023-04-19T23:47:43.583Z,5.03
2023-04-19T23:51:48.889Z,4.97
2023-04-19T23:55:51.970Z,4.82
2023-04-19T23:59:56.454Z,4.80
